createdAt,value
2018-06-23T00:22:49.471Z,12.20
2018-06-23T00:25:52.714Z,12.10
2018-06-23T00:28:50.092Z,11.80
2018-06-23T00:31:47.656Z,11.70
2018-06-23T00:34:45.461Z,11.60
2018-06-23T00:37:42.961Z,11.60
2018-06-23T00:40:40.558Z,11.60
2018-06-23T00:43:38.065Z,11.50
2018-06-23T00:46:35.626Z,11.50
2018-06-23T00:49:32.893Z,11.50
2018-06-23T00:52:30.911Z,11.50
2018-06-23T00:55:28.431Z,11.40
2018-06-23T00:58:26.476Z,11.40
2018-06-23T01:01:24.618Z,11.40
2018-06-23T01:04:22.681Z,11.30
2018-06-23T01:07:20.122Z,11.30
2018-06-23T01:10:18.487Z,11.30
2018-06-23T01:13:15.760Z,11.30
2018-06-23T01:16:14.187Z,11.30
2018-06-23T01:19:11.527Z,11.20
2018-06-23T01:22:09.583Z,11.20
2018-06-23T01:25:06.746Z,11.20
2018-06-23T01:28:03.873Z,11.20
2018-06-23T01:31:01.868Z,11.20
2018-06-23T01:33:59.632Z,11.20
2018-06-23T01:36:57.697Z,11.10
2018-06-23T01:39:55.189Z,11.10
2018-06-23T01:42:52.437Z,11.10
2018-06-23T01:45:50.448Z,11.00
2018-06-23T01:48:48.507Z,11.00
2018-06-23T01:51:46.009Z,11.00
2018-06-23T01:54:43.359Z,11.00
2018-06-23T01:57:40.749Z,10.90
2018-06-23T02:00:38.286Z,11.00
2018-06-23T02:03:35.773Z,11.00
2018-06-23T02:06:33.170Z,11.00
2018-06-23T02:09:31.237Z,11.00
2018-06-23T02:12:28.903Z,11.00
2018-06-23T02:15:31.555Z,11.00
2018-06-23T02:18:34.901Z,11.00
2018-06-23T02:21:38.196Z,11.10
2018-06-23T02:24:41.448Z,11.10
2018-06-23T02:27:44.650Z,11.10
2018-06-23T02:30:47.883Z,11.10
2018-06-23T02:33:51.177Z,11.10
2018-06-23T02:36:49.370Z,11.10
2018-06-23T02:39:46.719Z,11.20
2018-06-23T02:42:44.614Z,11.20
2018-06-23T02:45:42.071Z,11.20
2018-06-23T02:48:40.316Z,11.30
2018-06-23T02:51:37.446Z,11.30
2018-06-23T02:54:34.552Z,11.40
2018-06-23T02:57:32.579Z,11.30
2018-06-23T03:00:30.789Z,11.40
2018-06-23T03:03:28.235Z,11.40
2018-06-23T03:06:25.574Z,11.50
2018-06-23T03:09:22.747Z,11.50
2018-06-23T03:12:19.883Z,11.60
2018-06-23T03:15:17.316Z,11.60
2018-06-23T03:18:14.765Z,11.60
2018-06-23T03:21:11.931Z,11.60
2018-06-23T03:24:09.310Z,11.60
2018-06-23T03:46:26.047Z,11.60
2018-06-23T03:49:23.534Z,11.70
2018-06-23T03:52:20.879Z,12.20
2018-06-23T03:55:18.276Z,12.10
2018-06-23T03:58:15.616Z,12.10
2018-06-23T04:01:17.212Z,12.20
2018-06-23T04:04:14.689Z,12.30
2018-06-23T04:07:12.006Z,12.50
2018-06-23T04:10:10.121Z,12.50
2018-06-23T04:13:07.399Z,12.70
2018-06-23T04:16:04.863Z,12.80
2018-06-23T04:19:04.975Z,12.80
2018-06-23T04:22:02.280Z,12.80
2018-06-23T04:24:59.576Z,12.80
2018-06-23T04:27:57.071Z,12.80
2018-06-23T04:30:54.509Z,12.70
2018-06-23T04:33:53.491Z,12.60
2018-06-23T04:36:50.604Z,12.50
2018-06-23T04:39:48.392Z,12.40
2018-06-23T04:42:45.618Z,12.50
2018-06-23T04:45:42.820Z,12.50
2018-06-23T04:48:40.899Z,12.60
2018-06-23T04:51:38.028Z,12.60
2018-06-23T04:54:35.942Z,12.60
2018-06-23T04:57:34.118Z,12.70
2018-06-23T05:00:33.486Z,12.60
2018-06-23T05:03:31.559Z,12.70
2018-06-23T05:06:28.970Z,12.60
2018-06-23T05:09:28.800Z,12.80
2018-06-23T05:12:26.220Z,12.90
2018-06-23T05:15:23.461Z,12.90
2018-06-23T05:18:21.622Z,12.90
2018-06-23T05:21:19.671Z,12.90
2018-06-23T05:24:17.074Z,13.00
2018-06-23T05:27:14.559Z,12.80
2018-06-23T05:30:12.156Z,12.80
2018-06-23T05:33:10.237Z,12.90
2018-06-23T05:36:07.509Z,12.90
2018-06-23T05:39:05.145Z,12.90
2018-06-23T05:42:03.186Z,12.90
2018-06-23T05:45:00.682Z,13.00
2018-06-23T05:47:58.103Z,13.10
2018-06-23T05:50:55.498Z,13.20
2018-06-23T05:53:53.711Z,13.00
2018-06-23T05:56:51.659Z,12.90
2018-06-23T06:02:40.148Z,12.90
2018-06-23T06:05:38.192Z,12.90
2018-06-23T06:08:36.438Z,13.00
2018-06-23T06:11:33.757Z,13.20
2018-06-23T06:14:31.157Z,13.30
2018-06-23T06:17:59.173Z,13.40
2018-06-23T06:20:56.564Z,13.60
2018-06-23T06:23:53.810Z,13.40
2018-06-23T06:26:52.751Z,13.50
2018-06-23T06:29:50.016Z,13.40
2018-06-23T06:32:47.241Z,13.60
2018-06-23T06:35:44.697Z,14.10
2018-06-23T06:38:41.946Z,14.10
2018-06-23T06:41:39.913Z,14.10
2018-06-23T06:44:37.187Z,14.40
2018-06-23T06:47:35.552Z,14.40
2018-06-23T06:50:32.983Z,14.40
2018-06-23T06:53:30.326Z,14.50
2018-06-23T06:56:28.212Z,14.60
2018-06-23T06:59:26.484Z,14.80
2018-06-23T07:02:24.132Z,14.70
2018-06-23T07:05:22.057Z,15.30
2018-06-23T07:08:19.459Z,16.20
2018-06-23T07:11:17.806Z,17.10
2018-06-23T07:14:16.153Z,18.40
2018-06-23T07:17:13.716Z,19.00
2018-06-23T07:20:12.104Z,19.70
2018-06-23T07:23:09.650Z,20.00
2018-06-23T07:26:07.000Z,18.90
2018-06-23T07:29:05.041Z,18.60
2018-06-23T07:32:02.157Z,18.00
2018-06-23T07:34:59.470Z,17.90
2018-06-23T07:37:57.495Z,18.20
2018-06-23T07:40:55.570Z,18.70
2018-06-23T07:43:52.920Z,18.90
2018-06-23T07:46:50.969Z,18.00
2018-06-23T07:49:48.341Z,17.80
2018-06-23T07:52:45.796Z,17.90
2018-06-23T07:55:43.908Z,19.00
2018-06-23T07:58:41.219Z,19.60
2018-06-23T08:01:39.347Z,20.10
2018-06-23T08:04:36.777Z,20.00
2018-06-23T08:07:34.684Z,18.50
2018-06-23T08:10:32.204Z,18.10
2018-06-23T08:13:30.185Z,18.70
2018-06-23T08:16:28.231Z,18.50
2018-06-23T08:19:26.338Z,18.30
2018-06-23T08:22:24.431Z,18.50
2018-06-23T08:25:21.823Z,19.00
2018-06-23T08:28:19.873Z,19.60
2018-06-23T08:31:17.429Z,20.70
2018-06-23T08:34:15.605Z,21.70
2018-06-23T08:37:13.659Z,22.60
2018-06-23T08:40:11.762Z,21.10
2018-06-23T08:43:09.262Z,20.10
2018-06-23T08:46:06.559Z,20.50
2018-06-23T08:49:04.670Z,21.40
2018-06-23T08:52:02.217Z,21.70
2018-06-23T08:54:59.586Z,20.50
2018-06-23T08:57:57.592Z,19.50
2018-06-23T09:00:55.267Z,18.50
2018-06-23T09:03:53.078Z,17.90
2018-06-23T09:06:50.199Z,17.70
2018-06-23T09:09:48.266Z,17.60
2018-06-23T09:12:46.167Z,17.80
2018-06-23T09:15:43.849Z,17.90
2018-06-23T09:18:41.164Z,18.30
2018-06-23T09:21:38.956Z,18.80
2018-06-23T09:24:37.207Z,19.40
2018-06-23T09:27:35.282Z,19.70
2018-06-23T09:30:33.366Z,19.40
2018-06-23T09:33:30.898Z,19.30
2018-06-23T09:36:28.143Z,19.10
2018-06-23T09:39:25.855Z,19.10
2018-06-23T09:42:23.242Z,19.40
2018-06-23T09:45:20.428Z,19.20
2018-06-23T09:48:18.319Z,19.00
2018-06-23T09:51:16.325Z,19.60
2018-06-23T09:54:14.407Z,19.90
2018-06-23T09:57:13.705Z,19.90
2018-06-23T10:00:11.075Z,21.10
2018-06-23T10:03:09.140Z,21.10
2018-06-23T10:06:07.327Z,21.20
2018-06-23T10:09:05.362Z,20.80
2018-06-23T10:12:02.639Z,20.20
2018-06-23T10:15:00.508Z,19.70
2018-06-23T10:17:58.488Z,19.90
2018-06-23T10:20:55.829Z,19.90
2018-06-23T10:23:53.755Z,20.20
2018-06-23T10:26:50.962Z,20.20
2018-06-23T10:29:49.028Z,20.10
2018-06-23T10:32:47.134Z,20.70
2018-06-23T10:35:44.452Z,21.50
2018-06-23T10:38:42.584Z,21.40
2018-06-23T10:41:39.747Z,22.10
2018-06-23T10:44:37.777Z,22.00
2018-06-23T10:47:35.931Z,21.90
2018-06-23T10:50:33.948Z,22.20
2018-06-23T10:53:31.121Z,21.90
2018-06-23T10:56:30.039Z,21.10
2018-06-23T10:59:28.026Z,19.90
2018-06-23T11:02:25.244Z,19.90
2018-06-23T11:05:22.488Z,19.80
2018-06-23T11:08:19.622Z,19.40
2018-06-23T11:11:17.131Z,19.20
2018-06-23T11:14:14.654Z,19.50
2018-06-23T11:17:12.031Z,19.80
2018-06-23T11:20:10.344Z,19.10
2018-06-23T11:23:08.497Z,19.40
2018-06-23T11:26:05.678Z,19.20
2018-06-23T11:29:03.689Z,19.20
2018-06-23T11:32:00.937Z,19.00
2018-06-23T11:34:58.246Z,18.60
2018-06-23T11:37:56.442Z,18.40
2018-06-23T11:40:54.358Z,18.50
2018-06-23T11:43:51.596Z,18.60
2018-06-23T11:46:48.864Z,18.70
2018-06-23T11:49:46.093Z,18.70
2018-06-23T11:52:44.191Z,19.10
2018-06-23T11:55:42.208Z,20.40
2018-06-23T11:58:40.334Z,20.80
2018-06-23T12:01:38.142Z,20.50
2018-06-23T12:04:41.032Z,20.60
2018-06-23T12:07:39.034Z,21.20
2018-06-23T12:10:36.972Z,21.70
2018-06-23T12:13:34.943Z,21.00
2018-06-23T12:16:32.208Z,20.50
2018-06-23T12:19:30.115Z,19.80
2018-06-23T12:22:27.417Z,18.90
2018-06-23T12:25:25.593Z,18.30
2018-06-23T12:29:49.280Z,18.30
2018-06-23T12:32:47.334Z,18.20
2018-06-23T12:35:45.284Z,18.40
2018-06-23T12:38:43.411Z,18.20
2018-06-23T12:41:41.552Z,18.20
2018-06-23T12:44:39.386Z,18.20
2018-06-23T12:47:38.036Z,18.20
2018-06-23T12:50:36.068Z,18.10
2018-06-23T12:53:33.875Z,18.10
2018-06-23T12:56:31.630Z,18.00
2018-06-23T12:59:29.635Z,18.30
2018-06-23T13:02:27.427Z,18.30
2018-06-23T13:05:25.361Z,18.00
2018-06-23T13:08:23.224Z,17.70
2018-06-23T13:11:21.103Z,17.70
2018-06-23T13:14:19.177Z,17.90
2018-06-23T13:17:17.675Z,17.60
2018-06-23T13:20:15.709Z,18.00
2018-06-23T13:23:13.534Z,17.90
2018-06-23T13:26:11.632Z,18.00
2018-06-23T13:29:09.272Z,18.40
2018-06-23T13:32:06.884Z,19.50
2018-06-23T13:35:04.711Z,20.40
2018-06-23T13:38:02.706Z,21.00
2018-06-23T13:41:00.647Z,20.60
2018-06-23T13:43:58.366Z,19.80
2018-06-23T13:46:56.118Z,19.60
2018-06-23T13:49:54.020Z,18.90
2018-06-23T13:52:51.672Z,18.60
2018-06-23T13:55:49.580Z,18.60
2018-06-23T13:58:47.549Z,18.50
2018-06-23T14:01:45.472Z,18.30
2018-06-23T14:04:43.392Z,18.20
2018-06-23T14:07:41.139Z,18.10
2018-06-23T14:10:38.879Z,18.10
2018-06-23T14:13:37.501Z,18.20
2018-06-23T14:16:35.315Z,17.90
2018-06-23T14:19:33.318Z,17.70
2018-06-23T14:22:31.075Z,17.90
2018-06-23T14:25:29.064Z,17.80
2018-06-23T14:28:27.012Z,17.60
2018-06-23T14:31:25.002Z,17.50
2018-06-23T14:34:22.734Z,17.60
2018-06-23T14:37:20.587Z,18.00
2018-06-23T14:40:18.745Z,18.10
2018-06-23T14:43:16.584Z,18.40
2018-06-23T14:46:14.746Z,18.60
2018-06-23T14:49:12.758Z,18.70
2018-06-23T14:52:10.463Z,18.70
2018-06-23T14:55:08.482Z,18.40
2018-06-23T14:58:06.174Z,18.50
2018-06-23T15:01:03.792Z,18.70
2018-06-23T15:06:51.781Z,20.00
2018-06-23T15:10:00.939Z,20.60
2018-06-23T15:15:55.061Z,20.10
2018-06-23T15:18:54.003Z,20.00
2018-06-23T15:21:51.708Z,19.90
2018-06-23T15:24:48.924Z,19.30
2018-06-23T15:27:47.007Z,19.70
2018-06-23T15:30:46.072Z,19.40
2018-06-23T15:33:44.040Z,19.30
2018-06-23T15:36:41.867Z,19.40
2018-06-23T15:39:39.751Z,19.50
2018-06-23T15:42:37.753Z,19.70
2018-06-23T15:45:35.398Z,19.70
2018-06-23T15:48:33.075Z,19.50
2018-06-23T15:51:30.886Z,19.50
2018-06-23T15:54:29.576Z,19.20
2018-06-23T15:57:27.587Z,19.30
2018-06-23T16:00:25.503Z,19.40
2018-06-23T16:03:23.416Z,19.60
2018-06-23T16:06:21.134Z,19.40
2018-06-23T16:09:21.023Z,19.50
2018-06-23T16:12:18.937Z,19.00
2018-06-23T16:15:16.543Z,19.00
2018-06-23T16:18:14.558Z,19.00
2018-06-23T16:21:12.627Z,18.70
2018-06-23T16:24:10.611Z,18.90
2018-06-23T16:27:08.483Z,18.80
2018-06-23T16:30:06.473Z,19.00
2018-06-23T16:33:04.144Z,18.80
2018-06-23T16:36:01.453Z,18.70
2018-06-23T16:38:58.634Z,18.90
2018-06-23T16:41:56.555Z,18.90
2018-06-23T16:44:54.343Z,18.80
2018-06-23T16:47:52.036Z,19.00
2018-06-23T16:50:50.034Z,19.10
2018-06-23T16:53:47.258Z,19.10
2018-06-23T16:56:45.307Z,18.70
2018-06-23T16:59:43.298Z,18.70
2018-06-23T17:02:41.188Z,18.70
2018-06-23T17:05:38.715Z,18.30
2018-06-23T17:08:36.025Z,18.50
2018-06-23T17:11:34.476Z,18.30
2018-06-23T17:14:31.992Z,18.30
2018-06-23T17:17:29.828Z,18.40
2018-06-23T17:20:27.281Z,18.50
2018-06-23T17:23:26.117Z,18.40
2018-06-23T17:26:23.444Z,18.30
2018-06-23T17:29:21.181Z,18.30
2018-06-23T17:32:19.209Z,18.10
2018-06-23T17:35:17.212Z,18.00
2018-06-23T17:38:14.393Z,17.90
2018-06-23T17:41:12.355Z,17.90
2018-06-23T17:44:10.095Z,18.00
2018-06-23T17:47:08.017Z,18.00
2018-06-23T17:50:05.823Z,17.90
2018-06-23T17:53:03.576Z,17.80
2018-06-23T17:56:01.408Z,17.60
2018-06-23T17:58:59.516Z,17.50
2018-06-23T18:01:57.490Z,17.60
2018-06-23T18:04:55.385Z,17.60
2018-06-23T18:07:53.489Z,17.50
2018-06-23T18:10:51.379Z,17.50
2018-06-23T18:13:48.995Z,17.40
2018-06-23T18:16:47.115Z,17.40
2018-06-23T18:19:44.351Z,17.40
2018-06-23T18:22:42.069Z,17.30
2018-06-23T18:25:39.992Z,17.30
2018-06-23T18:28:37.779Z,17.30
2018-06-23T18:31:35.730Z,17.20
2018-06-23T18:34:33.423Z,17.20
2018-06-23T18:37:31.103Z,17.20
2018-06-23T18:40:28.874Z,17.20
2018-06-23T18:43:26.571Z,17.20
2018-06-23T18:46:23.738Z,17.10
2018-06-23T18:49:21.752Z,17.10
2018-06-23T18:52:19.656Z,17.00
2018-06-23T18:55:17.730Z,17.00
2018-06-23T18:58:15.531Z,17.10
2018-06-23T19:01:13.389Z,17.00
2018-06-23T19:04:11.577Z,17.00
2018-06-23T19:07:09.536Z,16.90
2018-06-23T19:10:07.966Z,16.80
2018-06-23T19:13:05.476Z,16.70
2018-06-23T19:16:03.715Z,16.70
2018-06-23T19:19:00.911Z,16.60
2018-06-23T19:21:58.836Z,16.50
2018-06-23T19:24:56.887Z,16.50
2018-06-23T19:27:54.960Z,16.50
2018-06-23T19:30:52.988Z,16.40
2018-06-23T19:33:51.072Z,16.30
2018-06-23T19:36:48.978Z,16.20
2018-06-23T19:39:46.803Z,16.20
2018-06-23T19:42:44.422Z,16.10
2018-06-23T19:45:42.499Z,16.10
2018-06-23T19:48:40.163Z,16.00
2018-06-23T19:51:37.987Z,16.00
2018-06-23T19:54:35.852Z,16.00
2018-06-23T19:57:33.763Z,15.90
2018-06-23T20:00:31.675Z,15.80
2018-06-23T20:03:30.289Z,15.70
2018-06-23T20:06:28.684Z,15.70
2018-06-23T20:09:28.799Z,15.60
2018-06-23T20:12:26.895Z,15.50
2018-06-23T20:15:24.971Z,15.30
2018-06-23T20:18:23.146Z,15.20
2018-06-23T20:21:20.955Z,15.10
2018-06-23T20:24:18.888Z,15.10
2018-06-23T20:27:16.948Z,15.00
2018-06-23T20:30:15.025Z,15.00
2018-06-23T20:33:13.104Z,14.90
2018-06-23T20:36:11.183Z,14.90
2018-06-23T20:39:09.099Z,14.80
2018-06-23T20:42:06.916Z,14.80
2018-06-23T20:45:04.654Z,14.80
2018-06-23T20:48:02.449Z,14.70
2018-06-23T20:51:00.149Z,14.60
2018-06-23T20:53:58.158Z,14.50
2018-06-23T20:56:55.945Z,14.50
2018-06-23T20:59:53.908Z,14.40
2018-06-23T21:02:51.862Z,14.30
2018-06-23T21:05:49.731Z,14.30
2018-06-23T21:08:47.727Z,14.20
2018-06-23T21:11:45.651Z,14.20
2018-06-23T21:14:44.428Z,14.10
2018-06-23T21:17:42.473Z,14.10
2018-06-23T21:20:39.665Z,14.10
2018-06-23T21:23:37.705Z,14.00
2018-06-23T21:26:35.442Z,14.00
2018-06-23T21:29:33.285Z,14.00
2018-06-23T21:32:31.344Z,14.00
2018-06-23T21:35:29.533Z,13.80
2018-06-23T21:38:26.755Z,13.80
2018-06-23T21:41:24.537Z,13.70
2018-06-23T21:44:22.298Z,13.70
2018-06-23T21:47:20.361Z,13.70
2018-06-23T21:50:18.518Z,13.70
2018-06-23T21:53:16.560Z,13.60
2018-06-23T21:56:14.697Z,13.60
2018-06-23T21:59:12.801Z,13.50
2018-06-23T22:02:10.795Z,13.50
2018-06-23T22:05:08.515Z,13.40
2018-06-23T22:08:07.569Z,13.40
2018-06-23T22:11:05.360Z,13.40
2018-06-23T22:14:03.381Z,13.40
2018-06-23T22:17:01.447Z,13.40
2018-06-23T22:19:59.186Z,13.40
2018-06-23T22:22:58.227Z,13.40
2018-06-23T22:25:55.984Z,13.40
2018-06-23T22:28:53.903Z,13.30
2018-06-23T22:31:51.839Z,13.30
2018-06-23T22:34:49.635Z,13.30
2018-06-23T22:37:47.700Z,13.20
2018-06-23T22:40:45.640Z,13.20
2018-06-23T22:43:43.649Z,13.20
2018-06-23T22:46:41.544Z,13.20
2018-06-23T22:49:39.459Z,13.20
2018-06-23T22:52:37.670Z,13.20
2018-06-23T22:55:35.638Z,13.20
2018-06-23T22:58:33.749Z,13.20
2018-06-23T23:01:31.652Z,13.10
2018-06-23T23:04:29.617Z,13.10
2018-06-23T23:07:27.511Z,13.10
2018-06-23T23:10:25.501Z,13.10
2018-06-23T23:13:23.630Z,13.10
2018-06-23T23:16:21.451Z,13.10
2018-06-23T23:19:19.719Z,13.10
2018-06-23T23:22:17.600Z,13.10
2018-06-23T23:25:15.562Z,13.00
2018-06-23T23:28:13.534Z,13.10
2018-06-23T23:31:11.583Z,13.10
2018-06-23T23:34:09.560Z,13.10
2018-06-23T23:37:07.377Z,13.10
2018-06-23T23:40:04.580Z,13.00
2018-06-23T23:43:02.792Z,13.00
2018-06-23T23:46:00.661Z,13.00
2018-06-23T23:48:58.689Z,13.00
2018-06-23T23:51:57.510Z,13.00
2018-06-23T23:54:55.486Z,12.90
2018-06-23T23:57:53.317Z,12.90
